Time;durP1;ratioP1;P1;durP2;ratioP2;P2;SDS_P1;SDS_P2;PMS_P1;PMS_P2;Temp;Humidity;BMP_temperature;BMP_pressure;BME280_temperature;BME280_humidity;BME280_pressure;Samples;Min_cycle;Max_cycle;Signal;HPM_P1;HPM_P2
2023/08/23 00:00:24;;;;;;;;;;;15.40;99.00;;;;;;5112506;28;19908;-69
2023/08/23 00:02:50;;;;;;;;;;;15.50;98.80;;;;;;5112295;28;19973;-69
2023/08/23 00:05:17;;;;;;;;;;;15.50;98.90;;;;;;5112526;28;19998;-69
2023/08/23 00:07:43;;;;;;;;;;;15.70;98.60;;;;;;5114457;28;19953;-70
2023/08/23 00:10:10;;;;;;;;;;;15.70;98.40;;;;;;5116422;28;19953;-70
2023/08/23 00:12:37;;;;;;;;;;;15.70;98.20;;;;;;5116087;28;19961;-70
2023/08/23 00:15:03;;;;;;;;;;;15.90;97.90;;;;;;5115832;28;19907;-69
2023/08/23 00:17:30;;;;;;;;;;;15.90;98.00;;;;;;5116108;28;19915;-68
2023/08/23 00:19:57;;;;;;;;;;;15.90;97.90;;;;;;5116011;28;19908;-70
2023/08/23 00:22:23;;;;;;;;;;;16.00;97.60;;;;;;5116119;28;19907;-69
2023/08/23 00:24:50;;;;;;;;;;;16.00;97.60;;;;;;5115825;28;20026;-69
2023/08/23 00:27:16;;;;;;;;;;;16.10;97.80;;;;;;5116066;28;20394;-70
2023/08/23 00:29:43;;;;;;;;;;;16.10;97.50;;;;;;5116134;28;19954;-69
2023/08/23 00:32:10;;;;;;;;;;;16.20;97.70;;;;;;5115951;28;19908;-68
2023/08/23 00:34:36;;;;;;;;;;;16.20;97.80;;;;;;5115781;28;19930;-70
2023/08/23 00:37:03;;;;;;;;;;;16.30;97.90;;;;;;5115529;28;19916;-71
2023/08/23 00:39:30;;;;;;;;;;;16.40;97.40;;;;;;5115832;28;19907;-70
2023/08/23 00:41:56;;;;;;;;;;;16.40;97.60;;;;;;5115560;28;20277;-69
2023/08/23 00:44:23;;;;;;;;;;;16.40;97.40;;;;;;5115377;28;19915;-69
2023/08/23 00:46:50;;;;;;;;;;;16.50;97.10;;;;;;5115416;28;20081;-70
2023/08/23 00:49:16;;;;;;;;;;;16.50;96.90;;;;;;5115270;28;19908;-70
2023/08/23 00:51:43;;;;;;;;;;;16.60;97.20;;;;;;5115691;28;19907;-70
2023/08/23 00:54:11;;;;;;;;;;;16.70;97.40;;;;;;5115405;28;19908;-71
2023/08/23 00:56:38;;;;;;;;;;;16.80;97.10;;;;;;5115387;28;19995;-70
2023/08/23 00:59:07;;;;;;;;;;;17.00;96.90;;;;;;5115442;28;19908;-70
2023/08/23 01:01:33;;;;;;;;;;;17.10;96.80;;;;;;5115297;28;19908;-69
2023/08/23 01:04:00;;;;;;;;;;;17.20;96.50;;;;;;5115230;28;19914;-70
2023/08/23 01:06:34;;;;;;;;;;;17.20;96.30;;;;;;5115186;28;20240;-71
2023/08/23 01:09:16;;;;;;;;;;;17.20;96.50;;;;;;5115267;28;19911;-71
2023/08/23 01:11:42;;;;;;;;;;;17.40;96.90;;;;;;5115336;28;19908;-70
2023/08/23 01:14:21;;;;;;;;;;;17.50;96.60;;;;;;5114908;28;19986;-70
2023/08/23 01:16:48;;;;;;;;;;;17.60;96.50;;;;;;5114604;28;19955;-69
2023/08/23 01:19:21;;;;;;;;;;;17.70;96.70;;;;;;5114396;28;20334;-68
2023/08/23 01:21:48;;;;;;;;;;;17.90;96.10;;;;;;5114983;28;19908;-70
2023/08/23 01:24:14;;;;;;;;;;;18.10;96.10;;;;;;5114897;28;20379;-68
2023/08/23 01:26:41;;;;;;;;;;;18.30;95.70;;;;;;5114796;28;19930;-70
2023/08/23 01:29:08;;;;;;;;;;;18.60;95.00;;;;;;5114631;28;19915;-71
2023/08/23 01:31:38;;;;;;;;;;;18.70;95.00;;;;;;5114646;28;19912;-69
2023/08/23 01:34:10;;;;;;;;;;;18.90;94.80;;;;;;5096445;28;19912;-69
2023/08/23 01:36:37;;;;;;;;;;;19.10;94.80;;;;;;5114391;28;19916;-70
2023/08/23 01:39:05;;;;;;;;;;;19.30;95.00;;;;;;5114437;28;19915;-69
2023/08/23 01:41:31;;;;;;;;;;;19.60;95.00;;;;;;5114399;28;19915;-68
2023/08/23 01:43:58;;;;;;;;;;;19.70;94.30;;;;;;5114260;28;19931;-69
2023/08/23 01:46:25;;;;;;;;;;;19.90;94.20;;;;;;5114421;28;19908;-70
2023/08/23 01:48:51;;;;;;;;;;;20.00;94.00;;;;;;5114325;28;19915;-69
2023/08/23 01:51:18;;;;;;;;;;;20.00;93.80;;;;;;5114597;28;19930;-70
2023/08/23 01:53:44;;;;;;;;;;;20.10;93.90;;;;;;5114817;28;19908;-69
2023/08/23 01:56:11;;;;;;;;;;;20.10;93.30;;;;;;5113724;28;19930;-69
2023/08/23 01:58:38;;;;;;;;;;;20.00;93.90;;;;;;5114294;28;19985;-69
2023/08/23 02:01:04;;;;;;;;;;;20.00;94.10;;;;;;5114251;28;19994;-69
2023/08/23 02:03:31;;;;;;;;;;;20.10;94.40;;;;;;5114136;28;19908;-68
2023/08/23 02:05:57;;;;;;;;;;;20.30;95.00;;;;;;5113904;28;19960;-70
2023/08/23 02:08:25;;;;;;;;;;;20.50;95.10;;;;;;5113791;28;19995;-71
2023/08/23 02:10:51;;;;;;;;;;;20.50;95.90;;;;;;5114068;28;19950;-69
2023/08/23 02:13:18;;;;;;;;;;;20.40;96.40;;;;;;5114169;28;20194;-70
2023/08/23 02:15:44;;;;;;;;;;;20.30;96.90;;;;;;5113856;28;20014;-68
2023/08/23 02:18:11;;;;;;;;;;;20.00;97.30;;;;;;5113708;28;20002;-69
2023/08/23 02:20:38;;;;;;;;;;;20.10;97.80;;;;;;5113657;28;19912;-69
2023/08/23 02:23:04;;;;;;;;;;;20.20;98.10;;;;;;5114378;28;20011;-70
2023/08/23 02:25:31;;;;;;;;;;;20.10;98.30;;;;;;5113770;28;19907;-71
2023/08/23 02:27:58;;;;;;;;;;;20.20;98.60;;;;;;5113047;28;19908;-69
2023/08/23 02:30:24;;;;;;;;;;;20.10;98.30;;;;;;5112577;28;19966;-69
2023/08/23 02:32:51;;;;;;;;;;;20.10;98.60;;;;;;5113689;28;19914;-70
2023/08/23 02:35:17;;;;;;;;;;;20.20;98.90;;;;;;5113685;28;19965;-68
2023/08/23 02:37:44;;;;;;;;;;;20.40;98.80;;;;;;5113550;28;19987;-68
2023/08/23 02:40:10;;;;;;;;;;;20.50;98.90;;;;;;5113552;28;20058;-69
2023/08/23 02:42:37;;;;;;;;;;;20.60;99.10;;;;;;5113387;28;20276;-69
2023/08/23 02:45:04;;;;;;;;;;;20.50;99.40;;;;;;5113356;28;19955;-70
2023/08/23 02:47:30;;;;;;;;;;;20.40;99.90;;;;;;5113101;28;19908;-69
2023/08/23 02:49:57;;;;;;;;;;;20.00;99.90;;;;;;5113373;28;19965;-70
2023/08/23 02:52:24;;;;;;;;;;;19.70;99.90;;;;;;5094851;28;19908;-72
2023/08/23 02:54:50;;;;;;;;;;;19.40;99.90;;;;;;5113312;28;19911;-70
2023/08/23 02:57:17;;;;;;;;;;;19.10;99.90;;;;;;5113096;28;19920;-69
2023/08/23 02:59:43;;;;;;;;;;;18.90;99.90;;;;;;5113104;28;19911;-69
2023/08/23 03:02:10;;;;;;;;;;;18.60;99.90;;;;;;5113074;28;19912;-70
2023/08/23 03:04:37;;;;;;;;;;;18.30;99.90;;;;;;5113283;28;19938;-69
2023/08/23 03:07:03;;;;;;;;;;;18.10;99.90;;;;;;5113083;28;19953;-69
2023/08/23 03:09:30;;;;;;;;;;;17.70;99.90;;;;;;5113205;28;19907;-69
2023/08/23 03:11:56;;;;;;;;;;;17.50;99.90;;;;;;5113172;28;19912;-70
2023/08/23 03:14:23;;;;;;;;;;;17.30;99.90;;;;;;5113178;28;20261;-68
2023/08/23 03:16:50;;;;;;;;;;;17.10;99.90;;;;;;5112751;28;19923;-69
2023/08/23 03:19:16;;;;;;;;;;;16.90;99.90;;;;;;5113123;28;19919;-70
2023/08/23 03:21:43;;;;;;;;;;;16.80;99.90;;;;;;5113138;28;19915;-69
2023/08/23 03:24:09;;;;;;;;;;;16.80;99.90;;;;;;5113103;28;19907;-69
2023/08/23 03:26:36;;;;;;;;;;;16.90;99.90;;;;;;5113065;28;19908;-69
2023/08/23 03:29:03;;;;;;;;;;;16.90;99.90;;;;;;5112975;28;19908;-70
2023/08/23 03:31:29;;;;;;;;;;;17.00;99.90;;;;;;5112877;28;19931;-68
2023/08/23 03:33:56;;;;;;;;;;;17.00;99.90;;;;;;5113105;28;19915;-69
2023/08/23 03:36:23;;;;;;;;;;;17.00;99.90;;;;;;5112904;28;19919;-69
2023/08/23 03:38:50;;;;;;;;;;;17.10;99.90;;;;;;5112750;28;20357;-69
2023/08/23 03:41:17;;;;;;;;;;;17.20;99.90;;;;;;5114156;28;19908;-69
2023/08/23 03:43:43;;;;;;;;;;;17.30;99.90;;;;;;5116469;28;19912;-69
2023/08/23 03:46:10;;;;;;;;;;;17.40;99.90;;;;;;5116646;28;20368;-69
2023/08/23 03:48:37;;;;;;;;;;;17.50;99.90;;;;;;5098379;28;20295;-69
2023/08/23 03:51:03;;;;;;;;;;;17.60;99.90;;;;;;5116716;28;19946;-70
2023/08/23 03:53:30;;;;;;;;;;;17.60;99.90;;;;;;5116786;28;19908;-69
2023/08/23 03:55:58;;;;;;;;;;;17.70;99.90;;;;;;5116550;28;19915;-68
2023/08/23 03:58:25;;;;;;;;;;;17.80;99.90;;;;;;5116747;28;20318;-70
2023/08/23 04:00:55;;;;;;;;;;;18.00;99.90;;;;;;5116532;28;19908;-69
2023/08/23 04:03:21;;;;;;;;;;;18.00;99.90;;;;;;5116214;28;19907;-68
2023/08/23 04:05:48;;;;;;;;;;;18.20;99.90;;;;;;5111235;28;19950;-69
2023/08/23 04:08:16;;;;;;;;;;;18.30;99.90;;;;;;5116040;28;19961;-69
2023/08/23 04:10:47;;;;;;;;;;;18.40;99.90;;;;;;5097696;28;19958;-68
2023/08/23 04:13:14;;;;;;;;;;;18.30;99.90;;;;;;5116090;28;19960;-69
2023/08/23 04:15:44;;;;;;;;;;;18.30;99.90;;;;;;5115999;28;19919;-69
2023/08/23 04:18:10;;;;;;;;;;;18.10;99.90;;;;;;5116003;28;19990;-70
2023/08/23 04:20:37;;;;;;;;;;;18.10;99.90;;;;;;5099628;28;20288;-70
2023/08/23 04:23:05;;;;;;;;;;;18.00;99.90;;;;;;5101362;28;19920;-70
2023/08/23 04:25:31;;;;;;;;;;;17.90;99.90;;;;;;5105551;28;19912;-68
2023/08/23 04:27:58;;;;;;;;;;;17.90;99.90;;;;;;5113025;28;20317;-70
2023/08/23 04:30:25;;;;;;;;;;;17.80;99.90;;;;;;5100467;28;19916;-69
2023/08/23 04:32:51;;;;;;;;;;;17.80;99.90;;;;;;5114852;28;19966;-68
2023/08/23 04:35:18;;;;;;;;;;;17.90;99.90;;;;;;5112321;28;19912;-69
2023/08/23 04:37:44;;;;;;;;;;;17.80;99.90;;;;;;5105411;28;19938;-68
2023/08/23 04:40:11;;;;;;;;;;;17.80;99.90;;;;;;5108564;28;19912;-69
2023/08/23 04:42:39;;;;;;;;;;;17.90;99.90;;;;;;5115015;28;19912;-69
2023/08/23 04:45:05;;;;;;;;;;;18.00;99.90;;;;;;5113568;28;19924;-68
2023/08/23 04:47:32;;;;;;;;;;;18.10;99.90;;;;;;5114167;28;20262;-70
2023/08/23 04:49:59;;;;;;;;;;;18.10;99.90;;;;;;5113119;28;20006;-67
2023/08/23 04:52:27;;;;;;;;;;;18.00;99.90;;;;;;5113964;28;19911;-67
2023/08/23 04:54:54;;;;;;;;;;;17.90;99.90;;;;;;5114317;28;19908;-67
2023/08/23 04:57:20;;;;;;;;;;;17.90;99.90;;;;;;5111978;28;19920;-69
2023/08/23 04:59:47;;;;;;;;;;;17.90;99.90;;;;;;5110067;28;19915;-68
2023/08/23 05:02:14;;;;;;;;;;;17.80;99.90;;;;;;5099981;28;19951;-69
2023/08/23 05:04:40;;;;;;;;;;;17.80;99.90;;;;;;5103976;28;19958;-67
2023/08/23 05:07:07;;;;;;;;;;;17.80;99.90;;;;;;5103000;28;19965;-68
2023/08/23 05:09:33;;;;;;;;;;;17.70;99.90;;;;;;5102061;28;19908;-71
2023/08/23 05:12:00;;;;;;;;;;;17.70;99.90;;;;;;5109051;28;19957;-67
2023/08/23 05:14:27;;;;;;;;;;;17.80;99.90;;;;;;5112209;28;19977;-69
2023/08/23 05:16:53;;;;;;;;;;;17.90;99.90;;;;;;5109289;28;20021;-68
2023/08/23 05:19:20;;;;;;;;;;;18.10;99.90;;;;;;5108912;28;19912;-70
2023/08/23 05:21:46;;;;;;;;;;;18.10;99.90;;;;;;5103960;28;19908;-69
2023/08/23 05:24:13;;;;;;;;;;;18.20;99.90;;;;;;5113046;28;19908;-68
2023/08/23 05:26:40;;;;;;;;;;;18.40;99.90;;;;;;5101728;28;19918;-68
2023/08/23 05:29:06;;;;;;;;;;;18.40;99.90;;;;;;5106613;28;20390;-70
2023/08/23 05:31:33;;;;;;;;;;;18.40;99.90;;;;;;5074406;28;19908;-68
2023/08/23 05:33:59;;;;;;;;;;;18.20;99.90;;;;;;5093022;28;20267;-68
2023/08/23 05:36:26;;;;;;;;;;;18.10;99.90;;;;;;5106853;28;19920;-69
2023/08/23 05:38:53;;;;;;;;;;;18.00;99.90;;;;;;5100532;28;20032;-69
2023/08/23 05:41:20;;;;;;;;;;;17.90;99.90;;;;;;5105010;28;19915;-69
2023/08/23 05:43:46;;;;;;;;;;;17.80;99.90;;;;;;5090999;28;20253;-70
2023/08/23 05:46:13;;;;;;;;;;;17.70;99.90;;;;;;5110380;27;19985;-69
2023/08/23 05:48:39;;;;;;;;;;;17.60;99.90;;;;;;5109367;28;19995;-69
2023/08/23 05:51:07;;;;;;;;;;;17.50;99.90;;;;;;5103781;27;19918;-68
2023/08/23 05:53:34;;;;;;;;;;;17.50;99.90;;;;;;5092208;28;19994;-68
2023/08/23 05:56:00;;;;;;;;;;;17.40;99.90;;;;;;5100463;27;19927;-70
2023/08/23 05:58:27;;;;;;;;;;;17.30;99.90;;;;;;5103727;28;19965;-70
2023/08/23 06:00:55;;;;;;;;;;;17.30;99.90;;;;;;5108951;28;19915;-69
2023/08/23 06:03:22;;;;;;;;;;;17.30;99.90;;;;;;5061832;28;20284;-69
2023/08/23 06:05:53;;;;;;;;;;;17.20;99.90;;;;;;5106519;27;20322;-69
2023/08/23 06:08:20;;;;;;;;;;;17.10;99.90;;;;;;5099122;28;19912;-68
2023/08/23 06:10:47;;;;;;;;;;;17.10;99.90;;;;;;5099126;28;20438;-69
2023/08/23 06:13:14;;;;;;;;;;;17.10;99.90;;;;;;5091389;28;19998;-69
2023/08/23 06:15:40;;;;;;;;;;;17.00;99.90;;;;;;5096367;28;19923;-68
2023/08/23 06:18:07;;;;;;;;;;;16.90;99.90;;;;;;5104323;28;19916;-70
2023/08/23 06:20:33;;;;;;;;;;;17.00;99.90;;;;;;5100604;28;20002;-68
2023/08/23 06:23:00;;;;;;;;;;;17.00;99.90;;;;;;5106927;28;19920;-69
2023/08/23 06:25:27;;;;;;;;;;;16.90;99.90;;;;;;5103478;28;19913;-69
2023/08/23 06:27:53;;;;;;;;;;;16.90;99.90;;;;;;5094003;28;19908;-69
2023/08/23 06:30:21;;;;;;;;;;;16.90;99.90;;;;;;5100850;27;19919;-69
2023/08/23 06:32:48;;;;;;;;;;;17.00;99.90;;;;;;5098405;28;19931;-69
2023/08/23 06:35:16;;;;;;;;;;;16.90;99.90;;;;;;5096366;28;20269;-69
2023/08/23 06:37:43;;;;;;;;;;;16.90;99.90;;;;;;5105424;27;19923;-70
2023/08/23 06:40:12;;;;;;;;;;;16.90;99.90;;;;;;5088524;28;19911;-70
2023/08/23 06:42:39;;;;;;;;;;;16.90;99.90;;;;;;5092921;28;20001;-69
2023/08/23 06:45:07;;;;;;;;;;;16.90;99.90;;;;;;5105896;28;19927;-71
2023/08/23 06:47:34;;;;;;;;;;;16.90;99.90;;;;;;5096658;28;19912;-71
2023/08/23 06:50:01;;;;;;;;;;;16.80;99.90;;;;;;5106813;28;20385;-69
2023/08/23 06:52:28;;;;;;;;;;;16.80;99.90;;;;;;5108195;28;19916;-69
2023/08/23 06:54:55;;;;;;;;;;;16.80;99.90;;;;;;5077395;28;19919;-69
2023/08/23 06:57:28;;;;;;;;;;;16.70;99.90;;;;;;5104564;28;19919;-68
2023/08/23 06:59:58;;;;;;;;;;;16.70;99.90;;;;;;5091575;28;19915;-69
2023/08/23 07:02:25;;;;;;;;;;;16.60;99.90;;;;;;5096714;28;20292;-71
2023/08/23 07:04:52;;;;;;;;;;;16.70;99.90;;;;;;5095043;28;20451;-69
2023/08/23 07:07:20;;;;;;;;;;;16.50;99.90;;;;;;5104088;28;20007;-72
2023/08/23 07:09:47;;;;;;;;;;;16.50;99.90;;;;;;5109700;28;19915;-70
2023/08/23 07:12:13;;;;;;;;;;;16.50;99.90;;;;;;5108331;28;19941;-71
2023/08/23 07:14:40;;;;;;;;;;;16.50;99.90;;;;;;5091164;28;20359;-69
2023/08/23 07:17:07;;;;;;;;;;;16.50;99.90;;;;;;5106635;28;19926;-70
2023/08/23 07:19:34;;;;;;;;;;;16.50;99.90;;;;;;5111586;28;19953;-72
2023/08/23 07:22:01;;;;;;;;;;;16.50;99.90;;;;;;5103739;28;19919;-70
2023/08/23 07:24:28;;;;;;;;;;;16.40;99.90;;;;;;5115083;28;19919;-72
2023/08/23 07:26:55;;;;;;;;;;;16.40;99.90;;;;;;5114590;28;20272;-72
2023/08/23 07:29:21;;;;;;;;;;;16.40;99.90;;;;;;5101749;28;19913;-70
2023/08/23 07:31:48;;;;;;;;;;;16.30;99.90;;;;;;5095818;28;19908;-71
2023/08/23 07:34:16;;;;;;;;;;;16.30;99.90;;;;;;5105667;28;20308;-73
2023/08/23 07:36:42;;;;;;;;;;;16.40;99.90;;;;;;5113521;28;20409;-69
2023/08/23 07:39:09;;;;;;;;;;;16.30;99.90;;;;;;5115506;28;19919;-71
2023/08/23 07:41:36;;;;;;;;;;;16.30;99.90;;;;;;5102064;28;19912;-71
2023/08/23 07:44:02;;;;;;;;;;;16.30;99.90;;;;;;5095399;28;20284;-70
2023/08/23 07:46:29;;;;;;;;;;;16.40;99.90;;;;;;5106886;28;19907;-70
2023/08/23 07:48:55;;;;;;;;;;;16.40;99.90;;;;;;5114018;28;19972;-72
2023/08/23 07:51:22;;;;;;;;;;;16.40;99.90;;;;;;5115062;28;19990;-71
2023/08/23 07:53:49;;;;;;;;;;;16.30;99.90;;;;;;5101190;28;20036;-70
2023/08/23 07:56:17;;;;;;;;;;;16.40;99.90;;;;;;5099790;28;20049;-72
2023/08/23 07:58:44;;;;;;;;;;;16.40;99.90;;;;;;5097020;28;19989;-68
2023/08/23 08:01:10;;;;;;;;;;;16.30;99.90;;;;;;5106945;28;20050;-70
2023/08/23 08:03:38;;;;;;;;;;;16.40;99.90;;;;;;5094820;28;19963;-71
2023/08/23 08:06:05;;;;;;;;;;;16.30;99.90;;;;;;5111147;28;19917;-73
2023/08/23 08:08:32;;;;;;;;;;;16.30;99.90;;;;;;5105904;28;19911;-70
2023/08/23 08:10:59;;;;;;;;;;;16.30;99.90;;;;;;5115404;28;19958;-70
2023/08/23 08:13:25;;;;;;;;;;;16.30;99.90;;;;;;5114980;28;20002;-70
2023/08/23 08:15:52;;;;;;;;;;;16.30;99.90;;;;;;5111263;28;19924;-70
2023/08/23 08:18:19;;;;;;;;;;;16.30;99.90;;;;;;5094491;28;19943;-70
2023/08/23 08:20:47;;;;;;;;;;;16.30;99.90;;;;;;5095179;28;20007;-71
2023/08/23 08:23:14;;;;;;;;;;;16.30;99.90;;;;;;5094749;28;20209;-71
2023/08/23 08:25:40;;;;;;;;;;;16.30;99.90;;;;;;5109889;28;19912;-70
2023/08/23 08:28:07;;;;;;;;;;;16.30;99.90;;;;;;5103794;28;19915;-71
2023/08/23 08:30:33;;;;;;;;;;;16.30;99.90;;;;;;5095752;28;19912;-68
2023/08/23 08:33:01;;;;;;;;;;;16.30;99.90;;;;;;5102573;28;19912;-70
2023/08/23 08:35:28;;;;;;;;;;;16.30;99.90;;;;;;5106058;28;19998;-67
2023/08/23 08:37:54;;;;;;;;;;;16.30;99.90;;;;;;5114046;28;19916;-72
2023/08/23 08:40:22;;;;;;;;;;;16.30;99.90;;;;;;5112956;28;19916;-71
2023/08/23 08:42:49;;;;;;;;;;;16.40;99.90;;;;;;5097385;28;19923;-70
2023/08/23 08:45:15;;;;;;;;;;;16.30;99.90;;;;;;5109216;28;19977;-72
2023/08/23 08:47:42;;;;;;;;;;;16.30;99.90;;;;;;5089433;28;19916;-75
2023/08/23 08:50:09;;;;;;;;;;;16.30;99.90;;;;;;5093349;28;20376;-73
2023/08/23 08:52:38;;;;;;;;;;;16.30;99.90;;;;;;5099688;28;19939;-72
2023/08/23 08:55:05;;;;;;;;;;;16.30;99.90;;;;;;5099071;28;19923;-74
2023/08/23 08:57:33;;;;;;;;;;;16.30;99.90;;;;;;5112898;28;19919;-73
2023/08/23 08:59:59;;;;;;;;;;;16.30;99.90;;;;;;5114441;28;19915;-69
2023/08/23 09:02:27;;;;;;;;;;;16.40;99.90;;;;;;5108351;28;20395;-70
2023/08/23 09:04:54;;;;;;;;;;;16.30;99.90;;;;;;5090620;28;20007;-73
2023/08/23 09:07:20;;;;;;;;;;;16.30;99.90;;;;;;5112795;28;20067;-69
2023/08/23 09:09:47;;;;;;;;;;;16.30;99.90;;;;;;5107346;28;19912;-68
2023/08/23 09:12:14;;;;;;;;;;;16.30;99.90;;;;;;5097638;28;19919;-71
2023/08/23 09:14:40;;;;;;;;;;;16.30;99.90;;;;;;5114288;28;19908;-69
2023/08/23 09:17:10;;;;;;;;;;;16.20;99.90;;;;;;5095294;28;19924;-71
2023/08/23 09:19:40;;;;;;;;;;;16.30;99.90;;;;;;5078490;28;20018;-67
2023/08/23 09:22:07;;;;;;;;;;;16.30;99.90;;;;;;5093348;28;19908;-70
2023/08/23 09:24:33;;;;;;;;;;;16.20;99.90;;;;;;5084832;28;19926;-71
2023/08/23 09:27:00;;;;;;;;;;;16.20;99.90;;;;;;5108157;28;19916;-72
2023/08/23 09:29:27;;;;;;;;;;;16.30;99.90;;;;;;5113359;28;19915;-69
2023/08/23 09:31:54;;;;;;;;;;;16.20;99.90;;;;;;5113222;28;19998;-69
2023/08/23 09:34:20;;;;;;;;;;;16.20;99.90;;;;;;5093440;28;19912;-70
2023/08/23 09:36:47;;;;;;;;;;;16.20;99.90;;;;;;5111410;28;19920;-70
2023/08/23 09:39:18;;;;;;;;;;;16.20;99.90;;;;;;5096720;28;19916;-69
2023/08/23 09:41:44;;;;;;;;;;;16.20;99.90;;;;;;5078281;28;19986;-71
2023/08/23 09:44:11;;;;;;;;;;;16.20;99.90;;;;;;5093274;28;19938;-69
2023/08/23 09:46:41;;;;;;;;;;;16.20;99.90;;;;;;5096872;27;20400;-69
2023/08/23 09:49:08;;;;;;;;;;;16.20;99.90;;;;;;5103494;28;19912;-72
2023/08/23 09:51:35;;;;;;;;;;;16.20;99.90;;;;;;5092660;28;20416;-67
2023/08/23 09:54:07;;;;;;;;;;;16.20;99.90;;;;;;5094235;28;19919;-70
2023/08/23 09:56:34;;;;;;;;;;;16.20;99.90;;;;;;5093893;27;20262;-72
2023/08/23 09:59:02;;;;;;;;;;;16.20;99.90;;;;;;5105984;28;19961;-69
2023/08/23 10:01:29;;;;;;;;;;;16.20;99.90;;;;;;5107214;27;19912;-71
2023/08/23 10:03:56;;;;;;;;;;;16.00;99.90;;;;;;5073819;28;20321;-70
2023/08/23 10:06:23;;;;;;;;;;;16.10;99.90;;;;;;5100725;28;19927;-70
2023/08/23 10:08:49;;;;;;;;;;;16.10;99.90;;;;;;5107009;28;19919;-71
2023/08/23 10:11:18;;;;;;;;;;;16.00;99.90;;;;;;5100567;28;19912;-71
2023/08/23 10:13:46;;;;;;;;;;;16.00;99.90;;;;;;5092332;28;19915;-71
2023/08/23 10:16:14;;;;;;;;;;;16.00;99.90;;;;;;5091653;28;19920;-69
2023/08/23 10:18:41;;;;;;;;;;;16.00;99.90;;;;;;5102449;28;19959;-69
2023/08/23 10:21:07;;;;;;;;;;;16.00;99.90;;;;;;5102242;28;20354;-70
2023/08/23 10:23:36;;;;;;;;;;;16.10;99.90;;;;;;5105053;28;20365;-69
2023/08/23 10:26:03;;;;;;;;;;;16.10;99.90;;;;;;5095122;28;19919;-68
2023/08/23 10:28:30;;;;;;;;;;;16.00;99.90;;;;;;5100412;28;19912;-69
2023/08/23 10:30:58;;;;;;;;;;;15.90;99.90;;;;;;5103072;27;20249;-69
2023/08/23 10:33:25;;;;;;;;;;;15.90;99.90;;;;;;5091282;28;19919;-68
2023/08/23 10:35:52;;;;;;;;;;;15.90;99.90;;;;;;5091374;28;20773;-71
2023/08/23 10:38:19;;;;;;;;;;;15.80;99.90;;;;;;5098957;28;20011;-69
2023/08/23 10:40:46;;;;;;;;;;;15.80;99.90;;;;;;5085507;28;19912;-70
2023/08/23 10:43:13;;;;;;;;;;;15.70;99.90;;;;;;5093572;28;19916;-71
2023/08/23 10:45:52;;;;;;;;;;;15.60;99.90;;;;;;5090497;28;19920;-69
2023/08/23 10:48:23;;;;;;;;;;;15.60;99.90;;;;;;5098721;28;20249;-70
2023/08/23 10:50:51;;;;;;;;;;;15.60;99.90;;;;;;5102693;28;19911;-68
2023/08/23 10:53:18;;;;;;;;;;;15.50;99.90;;;;;;5093217;28;19994;-71
2023/08/23 10:55:45;;;;;;;;;;;15.30;99.90;;;;;;5098980;28;19916;-69
2023/08/23 10:58:12;;;;;;;;;;;15.30;99.90;;;;;;5097771;28;19908;-70
2023/08/23 11:00:40;;;;;;;;;;;15.30;99.90;;;;;;5102662;28;20367;-70
2023/08/23 11:03:07;;;;;;;;;;;15.20;99.90;;;;;;5105999;28;19911;-70
2023/08/23 11:05:34;;;;;;;;;;;15.20;99.90;;;;;;5109457;28;20302;-70
2023/08/23 11:08:02;;;;;;;;;;;15.20;99.90;;;;;;5104469;28;19965;-67
2023/08/23 11:10:29;;;;;;;;;;;15.10;99.90;;;;;;5091949;28;20349;-71
2023/08/23 11:12:56;;;;;;;;;;;15.00;99.90;;;;;;5090557;28;20490;-72
2023/08/23 11:15:23;;;;;;;;;;;15.00;99.90;;;;;;5090378;28;19951;-71
2023/08/23 11:17:49;;;;;;;;;;;14.90;99.90;;;;;;5090657;28;19912;-68
2023/08/23 11:20:17;;;;;;;;;;;14.90;99.90;;;;;;5090546;28;19916;-71
2023/08/23 11:22:44;;;;;;;;;;;14.80;99.90;;;;;;5090380;28;20369;-73
2023/08/23 11:25:10;;;;;;;;;;;14.90;99.90;;;;;;5090111;28;19908;-71
2023/08/23 11:27:37;;;;;;;;;;;14.80;99.90;;;;;;5090521;28;19908;-70
2023/08/23 11:30:04;;;;;;;;;;;14.80;99.90;;;;;;5092502;28;20365;-71
2023/08/23 11:32:31;;;;;;;;;;;14.80;99.90;;;;;;5092693;28;19912;-69
2023/08/23 11:34:58;;;;;;;;;;;14.80;99.90;;;;;;5092497;28;19912;-69
2023/08/23 11:37:24;;;;;;;;;;;14.80;99.90;;;;;;5093092;28;19916;-71
2023/08/23 11:39:58;;;;;;;;;;;14.80;99.90;;;;;;5096231;28;19964;-72
2023/08/23 11:42:25;;;;;;;;;;;14.80;99.90;;;;;;5090867;28;20357;-72
2023/08/23 11:44:57;;;;;;;;;;;14.80;99.90;;;;;;5091995;28;19963;-73
2023/08/23 11:47:27;;;;;;;;;;;14.90;99.90;;;;;;5092316;28;19912;-72
2023/08/23 11:49:53;;;;;;;;;;;14.80;99.90;;;;;;5092769;28;20254;-70
2023/08/23 11:52:20;;;;;;;;;;;14.80;99.90;;;;;;5092616;28;19915;-71
2023/08/23 11:54:47;;;;;;;;;;;14.80;99.90;;;;;;5092248;28;19916;-71
2023/08/23 11:57:19;;;;;;;;;;;14.70;99.90;;;;;;5074185;28;19923;-71
2023/08/23 11:59:47;;;;;;;;;;;14.70;99.90;;;;;;5092369;28;19909;-72
2023/08/23 12:02:13;;;;;;;;;;;14.60;99.90;;;;;;5093647;28;19915;-75
2023/08/23 12:04:41;;;;;;;;;;;14.60;99.90;;;;;;5096088;28;20000;-72
2023/08/23 12:07:09;;;;;;;;;;;14.50;99.90;;;;;;5095679;28;19922;-73
2023/08/23 12:09:39;;;;;;;;;;;14.50;99.90;;;;;;5096156;28;19998;-72
2023/08/23 12:12:06;;;;;;;;;;;14.40;99.90;;;;;;5096136;28;19908;-72
2023/08/23 12:14:33;;;;;;;;;;;14.40;99.90;;;;;;5096003;28;19931;-71
2023/08/23 12:16:59;;;;;;;;;;;14.40;99.90;;;;;;5095772;28;19927;-72
2023/08/23 12:19:27;;;;;;;;;;;14.30;99.90;;;;;;5095932;28;19908;-72
2023/08/23 12:21:53;;;;;;;;;;;14.30;99.90;;;;;;5095884;28;19912;-69
2023/08/23 12:24:22;;;;;;;;;;;14.30;99.90;;;;;;5095938;28;19944;-73
2023/08/23 12:26:49;;;;;;;;;;;14.20;99.90;;;;;;5095631;28;19938;-73
2023/08/23 12:29:15;;;;;;;;;;;14.30;99.90;;;;;;5077354;28;19916;-72
2023/08/23 12:31:42;;;;;;;;;;;14.20;99.90;;;;;;5095227;28;20020;-71
2023/08/23 12:34:08;;;;;;;;;;;14.20;99.90;;;;;;5095770;28;19908;-72
2023/08/23 12:36:35;;;;;;;;;;;14.30;99.90;;;;;;5095555;28;20007;-71
2023/08/23 12:39:02;;;;;;;;;;;14.20;99.90;;;;;;5095567;28;19915;-73
2023/08/23 12:41:28;;;;;;;;;;;14.20;99.90;;;;;;5095308;28;19998;-73
2023/08/23 12:43:55;;;;;;;;;;;14.20;99.90;;;;;;5076917;28;20372;-71
2023/08/23 12:46:22;;;;;;;;;;;14.10;99.90;;;;;;5095446;28;19909;-72
2023/08/23 12:48:48;;;;;;;;;;;14.10;99.90;;;;;;5095452;28;20380;-72
2023/08/23 12:51:15;;;;;;;;;;;14.00;99.90;;;;;;5095461;28;19910;-72
2023/08/23 12:53:41;;;;;;;;;;;13.90;99.90;;;;;;5109879;28;20390;-72
2023/08/23 12:56:08;;;;;;;;;;;13.80;99.90;;;;;;5115233;28;20299;-72
2023/08/23 12:58:35;;;;;;;;;;;13.80;99.90;;;;;;5115638;28;20010;-69
2023/08/23 13:01:02;;;;;;;;;;;13.80;99.90;;;;;;5115603;28;20314;-71
2023/08/23 13:03:29;;;;;;;;;;;13.70;99.90;;;;;;5114920;28;19912;-70
2023/08/23 13:05:55;;;;;;;;;;;13.70;99.90;;;;;;5114738;28;19916;-73
2023/08/23 13:08:22;;;;;;;;;;;13.60;99.90;;;;;;5115347;28;19935;-73
2023/08/23 13:10:48;;;;;;;;;;;13.60;99.90;;;;;;5115463;28;20316;-72
2023/08/23 13:13:15;;;;;;;;;;;13.60;99.90;;;;;;5114701;28;19912;-71
2023/08/23 13:15:42;;;;;;;;;;;13.50;99.90;;;;;;5114913;28;19919;-70
2023/08/23 13:18:08;;;;;;;;;;;13.60;99.90;;;;;;5114554;28;19930;-72
2023/08/23 13:20:35;;;;;;;;;;;13.50;99.90;;;;;;5115017;28;19908;-71
2023/08/23 13:23:02;;;;;;;;;;;13.60;99.90;;;;;;5115099;28;19947;-73
2023/08/23 13:25:28;;;;;;;;;;;13.50;99.90;;;;;;5114918;28;20285;-71
2023/08/23 13:27:55;;;;;;;;;;;13.40;99.90;;;;;;5114712;28;19911;-71
2023/08/23 13:30:21;;;;;;;;;;;13.40;99.90;;;;;;5094213;28;19912;-68
2023/08/23 13:32:48;;;;;;;;;;;13.40;99.90;;;;;;5094574;28;19912;-70
2023/08/23 13:35:15;;;;;;;;;;;13.30;99.90;;;;;;5094416;28;19950;-70
2023/08/23 13:37:41;;;;;;;;;;;13.30;99.90;;;;;;5094383;28;19923;-69
2023/08/23 13:40:09;;;;;;;;;;;13.30;99.90;;;;;;5094505;28;19912;-68
2023/08/23 13:42:35;;;;;;;;;;;13.30;99.90;;;;;;5094823;28;19912;-69
2023/08/23 13:45:02;;;;;;;;;;;13.30;99.90;;;;;;5094140;28;19920;-70
2023/08/23 13:47:29;;;;;;;;;;;13.30;99.90;;;;;;5094247;28;19912;-72
2023/08/23 13:49:55;;;;;;;;;;;13.20;99.90;;;;;;5094229;28;19908;-67
2023/08/23 13:52:22;;;;;;;;;;;13.20;99.90;;;;;;5093981;28;19912;-69
2023/08/23 13:54:48;;;;;;;;;;;13.10;99.90;;;;;;5075681;28;19919;-70
2023/08/23 13:57:15;;;;;;;;;;;13.10;99.90;;;;;;5093782;28;19968;-72
2023/08/23 13:59:42;;;;;;;;;;;13.10;99.90;;;;;;5094198;28;20328;-70
2023/08/23 14:02:09;;;;;;;;;;;13.20;99.90;;;;;;5097207;28;19912;-71
2023/08/23 14:04:36;;;;;;;;;;;13.10;99.90;;;;;;5106415;28;19912;-71
2023/08/23 14:07:04;;;;;;;;;;;13.10;99.90;;;;;;5093799;28;20265;-70
2023/08/23 14:09:30;;;;;;;;;;;13.10;99.90;;;;;;5093717;28;20284;-70
2023/08/23 14:11:57;;;;;;;;;;;13.10;99.90;;;;;;5093544;28;19963;-71
2023/08/23 14:14:24;;;;;;;;;;;13.10;99.90;;;;;;5093712;28;19912;-73